createdAt,value
2024-01-20T00:00:53.453Z,-1.92
2024-01-20T00:03:23.410Z,-1.87
2024-01-20T00:05:50.541Z,-1.86
2024-01-20T00:08:18.192Z,-1.84
2024-01-20T00:10:45.360Z,-1.83
2024-01-20T00:13:12.838Z,-1.82
2024-01-20T00:15:43.175Z,-1.85
2024-01-20T00:18:11.310Z,-1.91
2024-01-20T00:20:39.376Z,-1.98
2024-01-20T00:23:06.804Z,-2.01
2024-01-20T00:25:34.409Z,-2.02
2024-01-20T00:28:02.579Z,-2.15
2024-01-20T00:30:30.532Z,-2.29
2024-01-20T00:32:57.882Z,-2.26
2024-01-20T00:35:25.158Z,-2.34
2024-01-20T00:37:52.086Z,-2.47
2024-01-20T00:40:21.685Z,-2.30
2024-01-20T00:42:48.663Z,-2.49
2024-01-20T00:45:15.587Z,-2.42
2024-01-20T00:47:42.592Z,-2.53
2024-01-20T00:50:10.665Z,-2.48
2024-01-20T00:52:37.913Z,-2.49
2024-01-20T00:55:05.751Z,-2.54
2024-01-20T00:57:33.025Z,-2.62
2024-01-20T01:00:09.019Z,-2.76
2024-01-20T01:02:40.188Z,-2.83
2024-01-20T01:05:08.397Z,-2.75
2024-01-20T01:07:36.805Z,-2.82
2024-01-20T01:10:05.013Z,-2.97
2024-01-20T01:12:31.847Z,-2.98
2024-01-20T01:14:58.852Z,-3.11
2024-01-20T01:17:26.104Z,-3.14
2024-01-20T01:19:54.423Z,-3.15
2024-01-20T01:22:23.920Z,-3.19
2024-01-20T01:24:51.277Z,-3.29
2024-01-20T01:27:18.207Z,-3.31
2024-01-20T01:29:45.182Z,-3.32
2024-01-20T01:32:12.127Z,-3.35
2024-01-20T01:34:42.647Z,-3.44
2024-01-20T01:37:10.691Z,-3.37
2024-01-20T01:39:39.646Z,-3.47
2024-01-20T01:42:07.624Z,-3.52
2024-01-20T01:44:34.461Z,-3.47
2024-01-20T01:47:02.755Z,-3.61
2024-01-20T01:49:29.985Z,-3.53
2024-01-20T01:51:56.819Z,-3.48
2024-01-20T01:54:25.936Z,-3.55
2024-01-20T01:56:54.494Z,-3.50
2024-01-20T01:59:22.370Z,-3.45
2024-01-20T02:01:49.202Z,-3.43
2024-01-20T02:04:16.338Z,-3.56
2024-01-20T02:06:43.879Z,-3.64
2024-01-20T02:09:11.590Z,-3.61
2024-01-20T02:11:40.451Z,-3.57
2024-01-20T02:14:07.736Z,-3.61
2024-01-20T02:16:35.124Z,-3.56
2024-01-20T02:19:08.620Z,-3.63
2024-01-20T02:21:37.746Z,-3.63
2024-01-20T02:24:08.867Z,-3.77
2024-01-20T02:26:39.090Z,-3.81
2024-01-20T02:29:06.214Z,-3.93
2024-01-20T02:31:33.333Z,-3.81
2024-01-20T02:34:01.709Z,-3.86
2024-01-20T02:36:28.695Z,-3.80
2024-01-20T02:38:55.737Z,-3.97
2024-01-20T02:41:22.595Z,-3.95
2024-01-20T02:43:49.564Z,-3.88
2024-01-20T02:46:16.477Z,-4.15
2024-01-20T02:48:43.447Z,-4.14
2024-01-20T02:51:10.479Z,-4.08
2024-01-20T02:53:38.455Z,-3.81
2024-01-20T02:56:05.638Z,-3.92
2024-01-20T02:58:33.816Z,-4.05
2024-01-20T03:01:02.178Z,-4.06
2024-01-20T03:03:29.505Z,-4.20
2024-01-20T03:05:56.807Z,-4.21
2024-01-20T03:08:23.738Z,-4.24
2024-01-20T03:10:50.951Z,-4.33
2024-01-20T03:13:20.237Z,-4.10
2024-01-20T03:15:47.099Z,-4.13
2024-01-20T03:18:16.287Z,-4.11
2024-01-20T03:20:43.549Z,-4.02
2024-01-20T03:23:10.534Z,-4.15
2024-01-20T03:25:37.494Z,-4.02
2024-01-20T03:28:04.650Z,-4.10
2024-01-20T03:30:34.059Z,-4.14
2024-01-20T03:33:02.586Z,-4.01
2024-01-20T03:35:29.878Z,-4.01
2024-01-20T03:37:56.782Z,-3.92
2024-01-20T03:40:23.751Z,-3.96
2024-01-20T03:42:50.564Z,-3.92
2024-01-20T03:45:17.674Z,-3.69
2024-01-20T03:47:45.609Z,-3.70
2024-01-20T03:50:17.079Z,-3.59
2024-01-20T03:52:44.592Z,-3.62
2024-01-20T03:55:13.584Z,-3.49
2024-01-20T03:57:42.636Z,-3.45
2024-01-20T04:00:11.506Z,-3.37
2024-01-20T04:02:39.101Z,-3.48
2024-01-20T04:05:07.013Z,-3.33
2024-01-20T04:07:35.046Z,-3.49
2024-01-20T04:10:02.348Z,-3.36
2024-01-20T04:12:29.502Z,-3.46
2024-01-20T04:14:57.201Z,-3.47
2024-01-20T04:17:25.412Z,-3.38
2024-01-20T04:19:52.770Z,-3.50
2024-01-20T04:22:23.194Z,-3.54
2024-01-20T04:24:50.212Z,-3.63
2024-01-20T04:27:18.349Z,-3.53
2024-01-20T04:29:45.125Z,-3.50
2024-01-20T04:32:12.057Z,-3.50
2024-01-20T04:34:39.745Z,-3.58
2024-01-20T04:37:07.734Z,-3.68
2024-01-20T04:39:38.676Z,-3.74
2024-01-20T04:42:06.707Z,-3.68
2024-01-20T04:44:33.972Z,-3.73
2024-01-20T04:47:01.883Z,-3.73
2024-01-20T04:49:31.081Z,-3.61
2024-01-20T04:52:02.810Z,-3.61
2024-01-20T04:54:32.091Z,-3.52
2024-01-20T04:56:59.817Z,-3.51
2024-01-20T04:59:26.974Z,-3.46
2024-01-20T05:01:54.384Z,-3.50
2024-01-20T05:04:24.366Z,-3.51
2024-01-20T05:06:53.413Z,-3.56
2024-01-20T05:09:20.879Z,-3.38
2024-01-20T05:11:52.900Z,-3.32
2024-01-20T05:14:19.810Z,-3.20
2024-01-20T05:16:48.617Z,-3.22
2024-01-20T05:19:17.062Z,-3.32
2024-01-20T05:21:45.407Z,-3.26
2024-01-20T05:24:15.329Z,-3.16
2024-01-20T05:26:42.294Z,-3.27
2024-01-20T05:29:09.175Z,-3.12
2024-01-20T05:31:39.174Z,-3.13
2024-01-20T05:34:06.331Z,-3.13
2024-01-20T05:36:33.974Z,-3.13
2024-01-20T05:39:02.322Z,-3.10
2024-01-20T05:41:30.164Z,-3.03
2024-01-20T05:43:57.255Z,-3.09
2024-01-20T05:46:24.534Z,-3.01
2024-01-20T05:48:51.586Z,-3.00
2024-01-20T05:51:19.081Z,-2.95
2024-01-20T05:53:46.974Z,-3.10
2024-01-20T05:56:16.661Z,-3.03
2024-01-20T05:58:44.867Z,-3.15
2024-01-20T06:01:11.911Z,-3.22
2024-01-20T06:03:39.098Z,-3.23
2024-01-20T06:06:12.280Z,-3.12
2024-01-20T06:08:39.568Z,-2.98
2024-01-20T06:11:06.460Z,-2.94
2024-01-20T06:13:33.510Z,-2.89
2024-01-20T06:16:00.864Z,-2.95
2024-01-20T06:18:29.963Z,-2.93
2024-01-20T06:20:57.931Z,-3.00
2024-01-20T06:23:25.200Z,-3.05
2024-01-20T06:25:54.168Z,-3.01
2024-01-20T06:28:22.721Z,-2.85
2024-01-20T06:30:51.113Z,-2.81
2024-01-20T06:33:18.406Z,-2.76
2024-01-20T06:35:45.705Z,-2.81
2024-01-20T06:38:13.747Z,-2.70
2024-01-20T06:40:43.263Z,-2.85
2024-01-20T06:43:10.712Z,-2.80
2024-01-20T06:45:40.927Z,-2.90
2024-01-20T06:48:11.453Z,-2.93
2024-01-20T06:50:44.307Z,-3.02
2024-01-20T06:53:14.141Z,-3.01
2024-01-20T06:55:41.394Z,-2.99
2024-01-20T06:58:08.769Z,-3.06
2024-01-20T07:00:35.734Z,-3.12
2024-01-20T07:03:04.173Z,-3.19
2024-01-20T07:05:34.090Z,-3.17
2024-01-20T07:08:05.788Z,-3.16
2024-01-20T07:10:32.675Z,-3.11
2024-01-20T07:12:59.929Z,-3.13
2024-01-20T07:15:28.160Z,-2.97
2024-01-20T07:17:58.752Z,-3.02
2024-01-20T07:20:27.418Z,-3.11
2024-01-20T07:22:54.710Z,-3.08
2024-01-20T07:25:22.023Z,-3.15
2024-01-20T07:27:49.306Z,-3.02
2024-01-20T07:30:16.813Z,-2.96
2024-01-20T07:32:44.303Z,-3.03
2024-01-20T07:35:11.670Z,-2.91
2024-01-20T07:37:42.891Z,-2.87
2024-01-20T07:40:10.844Z,-2.78
2024-01-20T07:42:41.474Z,-2.87
2024-01-20T07:45:09.030Z,-2.83
2024-01-20T07:47:36.099Z,-2.81
2024-01-20T07:50:03.666Z,-2.73
2024-01-20T07:52:30.465Z,-2.72
2024-01-20T07:54:57.580Z,-2.57
2024-01-20T07:57:24.424Z,-2.54
2024-01-20T07:59:52.466Z,-2.35
2024-01-20T08:02:19.666Z,-2.29
2024-01-20T08:04:48.957Z,-2.19
2024-01-20T08:07:16.424Z,-2.04
2024-01-20T08:09:43.802Z,-2.09
2024-01-20T08:12:10.725Z,-1.96
2024-01-20T08:14:37.600Z,-2.14
2024-01-20T08:17:04.862Z,-2.12
2024-01-20T08:19:32.210Z,-2.15
2024-01-20T08:22:00.565Z,-2.02
2024-01-20T08:24:27.514Z,-2.00
2024-01-20T08:26:54.530Z,-1.96
2024-01-20T08:29:23.604Z,-1.92
2024-01-20T08:31:51.020Z,-1.93
2024-01-20T08:34:17.921Z,-1.86
2024-01-20T08:36:45.374Z,-1.76
2024-01-20T08:39:12.400Z,-1.64
2024-01-20T08:41:39.729Z,-1.50
2024-01-20T08:44:06.601Z,-1.49
2024-01-20T08:46:34.610Z,-1.41
2024-01-20T08:49:01.497Z,-1.38
2024-01-20T08:51:30.650Z,-1.34
2024-01-20T08:53:57.606Z,-1.45
2024-01-20T08:56:26.012Z,-1.28
2024-01-20T08:58:53.988Z,-1.02
2024-01-20T09:01:23.920Z,-0.68
2024-01-20T09:03:51.004Z,-0.30
2024-01-20T09:06:18.426Z,0.07
2024-01-20T09:08:45.834Z,0.33
2024-01-20T09:11:13.234Z,0.33
2024-01-20T09:13:41.283Z,0.63
2024-01-20T09:16:08.208Z,0.46
2024-01-20T09:18:35.393Z,0.56
2024-01-20T09:21:02.572Z,0.94
2024-01-20T09:23:29.741Z,1.04
2024-01-20T09:25:56.913Z,1.04
2024-01-20T09:28:23.853Z,1.27
2024-01-20T09:30:51.853Z,1.52
2024-01-20T09:33:19.107Z,1.71
2024-01-20T09:35:46.275Z,2.11
2024-01-20T09:38:13.236Z,1.68
2024-01-20T09:40:40.281Z,1.83
2024-01-20T09:43:11.610Z,2.29
2024-01-20T09:45:41.474Z,2.10
2024-01-20T09:48:09.216Z,2.06
2024-01-20T09:50:36.753Z,2.26
2024-01-20T09:53:13.616Z,2.14
2024-01-20T09:55:42.962Z,2.66
2024-01-20T09:58:15.464Z,2.68
2024-01-20T10:00:43.621Z,2.67
2024-01-20T10:03:12.463Z,2.95
2024-01-20T10:05:39.971Z,3.13
2024-01-20T10:08:08.410Z,2.85
2024-01-20T10:10:41.996Z,2.89
2024-01-20T10:13:08.989Z,2.81
2024-01-20T10:15:37.057Z,3.01
2024-01-20T10:18:12.653Z,2.76
2024-01-20T10:20:40.964Z,2.92
2024-01-20T10:23:09.033Z,2.85
2024-01-20T10:25:39.512Z,2.86
2024-01-20T10:28:08.936Z,2.81
2024-01-20T10:30:39.008Z,2.74
2024-01-20T10:33:10.083Z,2.91
2024-01-20T10:35:39.963Z,2.81
2024-01-20T10:55:11.092Z,3.52
2024-01-20T10:57:38.520Z,3.20
2024-01-20T11:00:10.289Z,3.19
2024-01-20T11:02:38.271Z,3.14
2024-01-20T11:05:22.919Z,3.20
2024-01-20T11:08:24.148Z,3.48
2024-01-20T11:10:54.503Z,3.56
2024-01-20T11:13:26.267Z,3.86
2024-01-20T11:15:56.912Z,3.51
2024-01-20T11:18:28.668Z,3.55
2024-01-20T11:21:03.595Z,3.26
2024-01-20T11:23:32.790Z,3.30
2024-01-20T11:26:10.764Z,3.73
2024-01-20T11:28:38.160Z,3.72
2024-01-20T11:31:05.453Z,3.74
2024-01-20T11:33:33.038Z,3.16
2024-01-20T11:36:01.745Z,2.90
2024-01-20T11:38:30.129Z,3.28
2024-01-20T11:41:02.358Z,3.51
2024-01-20T11:43:30.925Z,3.58
2024-01-20T11:45:58.550Z,3.35
2024-01-20T11:48:27.169Z,3.46
2024-01-20T11:50:55.385Z,3.99
2024-01-20T11:53:23.733Z,4.17
2024-01-20T11:55:56.782Z,4.04
2024-01-20T11:58:24.182Z,4.22
2024-01-20T12:00:55.644Z,4.48
2024-01-20T12:03:23.310Z,4.56
2024-01-20T12:05:53.086Z,4.50
2024-01-20T12:08:21.911Z,4.14
2024-01-20T12:10:50.063Z,3.63
2024-01-20T12:13:17.952Z,4.09
2024-01-20T12:15:47.865Z,4.11
2024-01-20T12:18:18.079Z,3.93
2024-01-20T12:20:45.851Z,4.12
2024-01-20T12:23:19.297Z,3.98
2024-01-20T12:25:46.288Z,3.39
2024-01-20T12:28:14.290Z,3.31
2024-01-20T12:30:41.328Z,3.07
2024-01-20T12:33:08.307Z,3.02
2024-01-20T12:35:39.807Z,3.14
2024-01-20T12:38:06.716Z,3.07
2024-01-20T12:40:33.721Z,2.92
2024-01-20T12:43:02.658Z,3.33
2024-01-20T12:45:29.731Z,3.28
2024-01-20T12:47:57.481Z,2.97
2024-01-20T12:50:25.490Z,2.93
2024-01-20T12:52:52.714Z,2.61
2024-01-20T12:55:20.162Z,2.81
2024-01-20T12:57:48.054Z,2.60
2024-01-20T13:00:15.876Z,2.90
2024-01-20T13:02:43.903Z,2.84
2024-01-20T13:05:13.927Z,3.05
2024-01-20T13:07:40.860Z,2.99
2024-01-20T13:10:08.657Z,2.85
2024-01-20T13:12:36.194Z,2.91
2024-01-20T13:15:03.353Z,3.00
2024-01-20T13:17:30.655Z,3.16
2024-01-20T13:19:57.609Z,3.57
2024-01-20T13:22:24.545Z,3.87
2024-01-20T13:24:51.492Z,3.45
2024-01-20T13:27:18.554Z,3.18
2024-01-20T13:29:45.889Z,3.59
2024-01-20T13:32:13.502Z,3.85
2024-01-20T13:34:40.964Z,3.81
2024-01-20T13:37:08.373Z,3.67
2024-01-20T13:39:36.325Z,3.45
2024-01-20T13:42:03.268Z,3.28
2024-01-20T13:44:30.698Z,3.31
2024-01-20T13:46:57.477Z,3.35
2024-01-20T13:49:25.799Z,3.49
2024-01-20T13:51:53.094Z,3.37
2024-01-20T13:54:22.070Z,3.58
2024-01-20T13:56:50.651Z,3.51
2024-01-20T13:59:18.519Z,3.43
2024-01-20T14:01:45.560Z,3.07
2024-01-20T14:04:12.573Z,3.12
2024-01-20T14:06:40.091Z,3.24
2024-01-20T14:09:11.428Z,3.01
2024-01-20T14:11:38.841Z,3.06
2024-01-20T14:14:07.298Z,2.90
2024-01-20T14:16:35.334Z,2.86
2024-01-20T14:19:08.721Z,2.88
2024-01-20T14:21:36.618Z,2.94
2024-01-20T14:24:06.157Z,2.59
2024-01-20T14:26:33.497Z,2.39
2024-01-20T14:29:01.806Z,2.22
2024-01-20T14:31:29.832Z,2.29
2024-01-20T14:33:58.236Z,2.13
2024-01-20T14:36:28.728Z,1.66
2024-01-20T14:38:55.808Z,1.53
2024-01-20T14:41:22.706Z,1.41
2024-01-20T14:43:55.493Z,1.11
2024-01-20T14:46:22.963Z,1.04
2024-01-20T14:48:51.395Z,0.95
2024-01-20T14:51:18.864Z,0.82
2024-01-20T14:53:46.226Z,0.80
2024-01-20T14:56:14.122Z,0.71
2024-01-20T14:58:41.038Z,0.56
2024-01-20T15:01:08.122Z,0.31
2024-01-20T15:03:35.617Z,0.16
2024-01-20T15:06:04.042Z,-0.09
2024-01-20T15:08:31.024Z,-0.19
2024-01-20T15:10:57.892Z,-0.41
2024-01-20T15:13:24.709Z,-0.57
2024-01-20T15:15:54.202Z,-0.71
2024-01-20T15:18:23.616Z,-0.71
2024-01-20T15:20:51.807Z,-0.78
2024-01-20T15:23:18.968Z,-0.68
2024-01-20T15:25:46.386Z,-0.67
2024-01-20T15:28:14.929Z,-0.89
2024-01-20T15:30:42.252Z,-0.93
2024-01-20T15:33:10.954Z,-0.97
2024-01-20T15:35:38.408Z,-1.01
2024-01-20T15:38:05.836Z,-1.16
2024-01-20T15:40:33.160Z,-1.26
2024-01-20T15:42:59.954Z,-1.35
2024-01-20T15:45:27.967Z,-1.32
2024-01-20T15:47:57.105Z,-1.35
2024-01-20T15:50:24.373Z,-1.32
2024-01-20T15:52:51.216Z,-1.40
2024-01-20T15:55:21.978Z,-1.36
2024-01-20T15:57:48.962Z,-1.35
2024-01-20T16:00:18.000Z,-1.42
2024-01-20T16:02:45.496Z,-1.47
2024-01-20T16:05:12.457Z,-1.37
2024-01-20T16:07:39.452Z,-1.32
2024-01-20T16:10:07.243Z,-1.16
2024-01-20T16:12:34.260Z,-1.27
2024-01-20T16:15:01.216Z,-1.33
2024-01-20T16:17:28.464Z,-1.31
2024-01-20T16:19:55.884Z,-1.29
2024-01-20T16:22:22.703Z,-1.34
2024-01-20T16:24:51.458Z,-1.48
2024-01-20T16:27:18.705Z,-1.58
2024-01-20T16:29:46.767Z,-1.49
2024-01-20T16:32:16.180Z,-1.56
2024-01-20T16:34:44.389Z,-1.58
2024-01-20T16:37:12.304Z,-1.50
2024-01-20T16:39:39.780Z,-1.50
2024-01-20T16:42:08.170Z,-1.49
2024-01-20T16:44:35.031Z,-1.49
2024-01-20T16:47:04.063Z,-1.45
2024-01-20T16:49:31.037Z,-1.45
2024-01-20T16:51:59.410Z,-1.55
2024-01-20T16:54:27.415Z,-1.69
2024-01-20T16:56:54.321Z,-1.74
2024-01-20T16:59:21.283Z,-1.71
2024-01-20T17:01:48.204Z,-1.74
2024-01-20T17:04:16.294Z,-1.85
2024-01-20T17:06:44.306Z,-1.81
2024-01-20T17:09:16.079Z,-1.82
2024-01-20T17:11:48.908Z,-1.85
2024-01-20T17:14:19.799Z,-1.94
2024-01-20T17:16:50.024Z,-1.82
2024-01-20T17:19:17.503Z,-1.87
2024-01-20T17:21:44.908Z,-1.84
2024-01-20T17:24:12.362Z,-1.87
2024-01-20T17:26:40.067Z,-1.76
2024-01-20T17:29:08.236Z,-1.73
2024-01-20T17:31:38.355Z,-1.65
2024-01-20T17:34:05.204Z,-1.67
2024-01-20T17:36:33.315Z,-1.70
2024-01-20T17:39:01.725Z,-1.73
2024-01-20T17:41:29.040Z,-1.71
2024-01-20T17:43:56.056Z,-1.76
2024-01-20T17:46:24.000Z,-1.81
2024-01-20T17:48:54.938Z,-1.87
2024-01-20T17:51:21.918Z,-1.76
2024-01-20T17:53:50.000Z,-1.74
2024-01-20T17:56:19.405Z,-1.78
2024-01-20T17:58:47.378Z,-1.71
2024-01-20T18:01:14.333Z,-1.80
2024-01-20T18:03:41.310Z,-1.75
2024-01-20T18:06:09.573Z,-1.80
2024-01-20T18:08:37.169Z,-1.81
2024-01-20T18:11:05.278Z,-1.72
2024-01-20T18:13:32.135Z,-1.81
2024-01-20T18:15:59.724Z,-1.89
2024-01-20T18:18:26.697Z,-1.94
2024-01-20T18:20:53.904Z,-1.92
2024-01-20T18:23:26.042Z,-1.94
2024-01-20T18:25:52.927Z,-1.83
2024-01-20T18:28:19.981Z,-1.91
2024-01-20T18:30:48.086Z,-1.90
2024-01-20T18:33:15.530Z,-1.85
2024-01-20T18:35:42.719Z,-1.95
2024-01-20T18:38:12.858Z,-1.81
2024-01-20T18:40:39.962Z,-1.90
2024-01-20T18:43:07.238Z,-1.94
2024-01-20T18:45:34.159Z,-1.90
2024-01-20T18:48:06.310Z,-1.97
2024-01-20T18:50:35.943Z,-2.04
2024-01-20T18:53:02.834Z,-2.12
2024-01-20T18:55:31.830Z,-2.12
2024-01-20T18:57:58.765Z,-1.94
2024-01-20T19:00:28.461Z,-1.88
2024-01-20T19:02:55.776Z,-1.89
2024-01-20T19:05:23.309Z,-1.91
2024-01-20T19:07:50.784Z,-1.89
2024-01-20T19:10:19.187Z,-1.95
2024-01-20T19:12:47.666Z,-2.01
2024-01-20T19:15:15.326Z,-1.99
2024-01-20T19:17:48.999Z,-1.91
2024-01-20T19:20:16.360Z,-2.07
2024-01-20T19:22:43.704Z,-2.02
2024-01-20T19:25:13.011Z,-2.02
2024-01-20T19:27:42.296Z,-1.98
2024-01-20T19:30:12.814Z,-1.92
2024-01-20T19:32:41.344Z,-1.94
2024-01-20T19:35:08.665Z,-2.05
2024-01-20T19:37:35.380Z,-2.07
2024-01-20T19:40:03.813Z,-2.08
2024-01-20T19:42:31.034Z,-2.02
2024-01-20T19:44:58.579Z,-1.95
2024-01-20T19:47:27.044Z,-1.84
2024-01-20T19:49:54.939Z,-1.72
2024-01-20T19:52:21.994Z,-1.69
2024-01-20T19:54:49.170Z,-1.74
2024-01-20T19:57:17.004Z,-1.72
2024-01-20T19:59:44.077Z,-1.85
2024-01-20T20:02:11.103Z,-1.87
2024-01-20T20:04:40.527Z,-1.79
2024-01-20T20:07:10.293Z,-1.91
2024-01-20T20:09:38.994Z,-1.83
2024-01-20T20:12:09.270Z,-1.85
2024-01-20T20:14:37.575Z,-1.92
2024-01-20T20:17:07.583Z,-1.73
2024-01-20T20:19:37.669Z,-1.75
2024-01-20T20:22:05.042Z,-1.76
2024-01-20T20:24:33.081Z,-1.57
2024-01-20T20:27:02.067Z,-1.57
2024-01-20T20:29:29.078Z,-1.53
2024-01-20T20:31:57.032Z,-1.45
2024-01-20T20:34:25.157Z,-1.33
2024-01-20T20:36:57.876Z,-1.28
2024-01-20T20:39:25.378Z,-1.19
2024-01-20T20:41:55.487Z,-1.17
2024-01-20T20:44:24.548Z,-1.28
2024-01-20T20:46:52.835Z,-1.18
2024-01-20T20:49:20.057Z,-1.09
2024-01-20T20:51:47.606Z,-1.24
2024-01-20T20:54:14.897Z,-1.26
2024-01-20T20:56:41.820Z,-1.12
2024-01-20T20:59:08.767Z,-1.17
2024-01-20T21:01:35.777Z,-1.08
2024-01-20T21:04:07.757Z,-1.04
2024-01-20T21:06:34.935Z,-0.96
2024-01-20T21:09:01.846Z,-1.04
2024-01-20T21:11:28.796Z,-0.97
2024-01-20T21:13:56.677Z,-0.94
2024-01-20T21:16:25.310Z,-0.86
2024-01-20T21:18:56.063Z,-1.01
2024-01-20T21:21:24.933Z,-0.92
2024-01-20T21:23:54.416Z,-0.88
2024-01-20T21:26:24.369Z,-0.94
2024-01-20T21:28:51.802Z,-0.96
2024-01-20T21:31:18.994Z,-1.02
2024-01-20T21:33:47.468Z,-1.00
2024-01-20T21:36:15.712Z,-0.84
2024-01-20T21:38:43.758Z,-0.80
2024-01-20T21:41:13.958Z,-0.87
2024-01-20T21:43:41.254Z,-0.87
2024-01-20T21:46:11.215Z,-0.89
2024-01-20T21:48:40.236Z,-1.08
2024-01-20T21:51:07.111Z,-1.12
2024-01-20T21:53:34.078Z,-1.09
2024-01-20T21:56:00.959Z,-1.12
2024-01-20T21:58:27.999Z,-1.00
2024-01-20T22:00:55.307Z,-1.03
2024-01-20T22:03:24.090Z,-1.02
2024-01-20T22:05:51.623Z,-0.96
2024-01-20T22:08:19.523Z,-1.01
2024-01-20T22:10:46.498Z,-0.90
2024-01-20T22:13:13.383Z,-0.94
2024-01-20T22:15:41.621Z,-1.03
2024-01-20T22:18:08.893Z,-0.98
2024-01-20T22:20:35.929Z,-1.11
2024-01-20T22:23:04.012Z,-1.08
2024-01-20T22:25:31.253Z,-1.08
2024-01-20T22:28:00.290Z,-1.08
2024-01-20T22:30:27.299Z,-1.11
2024-01-20T22:32:54.161Z,-1.08
2024-01-20T22:35:21.205Z,-1.06
2024-01-20T22:37:51.437Z,-0.97
2024-01-20T22:40:18.612Z,-1.00
2024-01-20T22:42:47.624Z,-0.98
2024-01-20T22:45:14.578Z,-0.98
2024-01-20T22:47:45.192Z,-1.09
2024-01-20T22:50:14.782Z,-1.00
2024-01-20T22:52:41.904Z,-1.02
2024-01-20T22:55:09.215Z,-0.92
2024-01-20T22:57:38.872Z,-0.94
2024-01-20T23:00:14.204Z,-0.84
2024-01-20T23:02:43.345Z,-0.79
2024-01-20T23:05:10.706Z,-0.82
2024-01-20T23:07:39.362Z,-0.79
2024-01-20T23:10:09.280Z,-0.81
2024-01-20T23:12:37.768Z,-0.88
2024-01-20T23:15:06.358Z,-0.83
2024-01-20T23:17:33.819Z,-0.72
2024-01-20T23:20:02.451Z,-0.68
2024-01-20T23:22:32.600Z,-0.86
2024-01-20T23:24:59.885Z,-0.84
2024-01-20T23:27:26.870Z,-0.91
2024-01-20T23:29:53.722Z,-0.92
2024-01-20T23:32:21.813Z,-0.99
2024-01-20T23:34:49.766Z,-1.04
2024-01-20T23:37:17.726Z,-1.05
2024-01-20T23:39:44.757Z,-1.10
2024-01-20T23:42:12.068Z,-1.05
2024-01-20T23:44:43.306Z,-1.01
2024-01-20T23:47:10.572Z,-1.08
2024-01-20T23:49:37.816Z,-1.11
2024-01-20T23:52:11.123Z,-0.91
2024-01-20T23:54:39.021Z,-0.99
2024-01-20T23:57:07.156Z,-1.10
2024-01-20T23:59:34.490Z,-1.06
